createdAt,value
2023-03-22T00:00:09.788Z,11.55
2023-03-22T00:01:09.768Z,11.51
2023-03-22T00:02:09.751Z,11.60
2023-03-22T00:03:09.744Z,11.55
2023-03-22T00:04:09.810Z,11.49
2023-03-22T00:05:14.750Z,11.49
2023-03-22T00:06:09.706Z,11.39
2023-03-22T00:07:09.694Z,11.49
2023-03-22T00:08:09.688Z,11.37
2023-03-22T00:09:09.672Z,11.43
2023-03-22T00:10:09.710Z,11.40
2023-03-22T00:11:09.656Z,11.37
2023-03-22T00:12:09.667Z,11.39
2023-03-22T00:13:09.633Z,11.40
2023-03-22T00:14:09.619Z,11.54
2023-03-22T00:15:09.627Z,11.55
2023-03-22T00:16:14.712Z,11.42
2023-03-22T00:17:09.584Z,11.46
2023-03-22T00:18:09.573Z,11.58
2023-03-22T00:19:09.562Z,11.46
2023-03-22T00:20:09.561Z,11.62
2023-03-22T00:21:09.542Z,11.58
2023-03-22T00:22:09.553Z,11.62
2023-03-22T00:23:09.520Z,11.62
2023-03-22T00:24:09.511Z,11.60
2023-03-22T00:25:09.506Z,11.58
2023-03-22T00:26:09.485Z,11.52
2023-03-22T00:27:14.523Z,11.64
2023-03-22T00:28:09.468Z,11.51
2023-03-22T00:29:09.463Z,11.52
2023-03-22T00:30:09.452Z,11.55
2023-03-22T00:31:09.505Z,11.52
2023-03-22T00:32:09.418Z,11.47
2023-03-22T00:33:09.418Z,11.47
2023-03-22T00:34:09.404Z,11.44
2023-03-22T00:35:09.423Z,11.43
2023-03-22T00:36:09.374Z,11.44
2023-03-22T00:37:09.368Z,11.46
2023-03-22T00:38:14.502Z,11.55
2023-03-22T00:39:09.344Z,11.51
2023-03-22T00:40:09.350Z,11.52
2023-03-22T00:41:09.336Z,11.55
2023-03-22T00:42:09.312Z,11.62
2023-03-22T00:43:09.322Z,11.60
2023-03-22T00:44:09.300Z,11.58
2023-03-22T00:45:09.289Z,11.64
2023-03-22T00:46:09.405Z,11.60
2023-03-22T00:47:09.298Z,11.64
2023-03-22T00:48:09.260Z,11.62
2023-03-22T00:49:14.252Z,11.57
2023-03-22T00:50:09.234Z,11.60
2023-03-22T00:51:09.221Z,11.67
2023-03-22T00:52:09.197Z,11.55
2023-03-22T00:53:09.196Z,11.60
2023-03-22T00:54:09.181Z,11.58
2023-03-22T00:55:09.188Z,11.60
2023-03-22T00:56:09.161Z,11.58
2023-03-22T00:57:09.147Z,11.58
2023-03-22T00:58:09.128Z,11.64
2023-03-22T00:59:09.141Z,11.64
2023-03-22T01:00:14.146Z,11.62
2023-03-22T01:01:09.198Z,11.72
2023-03-22T01:02:09.085Z,11.62
2023-03-22T01:03:09.106Z,11.58
2023-03-22T01:04:09.061Z,11.61
2023-03-22T01:05:09.081Z,11.57
2023-03-22T01:06:09.038Z,11.52
2023-03-22T01:07:09.028Z,11.52
2023-03-22T01:08:09.017Z,11.46
2023-03-22T01:09:09.004Z,11.47
2023-03-22T01:10:09.003Z,11.46
2023-03-22T01:11:14.038Z,11.49
2023-03-22T01:12:08.971Z,11.47
2023-03-22T01:13:08.971Z,11.44
2023-03-22T01:14:08.949Z,11.42
2023-03-22T01:15:08.970Z,11.39
2023-03-22T01:16:08.978Z,11.39
2023-03-22T01:17:08.932Z,11.36
2023-03-22T01:18:08.923Z,11.40
2023-03-22T01:19:08.894Z,11.39
2023-03-22T01:20:08.889Z,11.40
2023-03-22T01:21:08.865Z,11.36
2023-03-22T01:22:13.875Z,11.37
2023-03-22T01:23:08.863Z,11.39
2023-03-22T01:24:08.832Z,11.40
2023-03-22T01:25:08.837Z,11.40
2023-03-22T01:26:08.810Z,11.35
2023-03-22T01:27:08.799Z,11.32
2023-03-22T01:28:08.793Z,11.33
2023-03-22T01:29:08.789Z,11.28
2023-03-22T01:30:08.764Z,11.39
2023-03-22T01:31:08.877Z,11.40
2023-03-22T01:32:08.746Z,11.40
2023-03-22T01:33:13.752Z,11.43
2023-03-22T01:34:08.720Z,11.47
2023-03-22T01:35:08.716Z,11.51
2023-03-22T01:36:08.713Z,11.51
2023-03-22T01:37:08.686Z,11.54
2023-03-22T01:38:08.683Z,11.62
2023-03-22T01:39:08.664Z,11.58
2023-03-22T01:40:08.664Z,11.55
2023-03-22T01:41:08.690Z,11.55
2023-03-22T01:42:08.638Z,11.57
2023-03-22T01:43:08.625Z,11.57
2023-03-22T01:44:13.630Z,11.54
2023-03-22T01:45:08.609Z,11.55
2023-03-22T01:46:08.622Z,11.55
2023-03-22T01:47:08.615Z,11.60
2023-03-22T01:48:08.623Z,11.52
2023-03-22T01:49:08.654Z,11.60
2023-03-22T01:50:08.556Z,11.60
2023-03-22T01:51:08.545Z,11.60
2023-03-22T01:52:08.526Z,11.60
2023-03-22T01:53:08.569Z,11.60
2023-03-22T01:54:08.499Z,11.58
2023-03-22T01:55:13.512Z,11.57
2023-03-22T01:56:08.489Z,11.55
2023-03-22T01:57:08.468Z,11.52
2023-03-22T01:58:08.464Z,11.57
2023-03-22T01:59:08.480Z,11.44
2023-03-22T02:00:08.435Z,11.54
2023-03-22T02:01:08.513Z,11.58
2023-03-22T02:02:08.413Z,11.49
2023-03-22T02:03:08.426Z,11.55
2023-03-22T02:04:08.391Z,11.51
2023-03-22T02:05:08.409Z,11.51
2023-03-22T02:06:13.401Z,11.61
2023-03-22T02:07:08.357Z,11.55
2023-03-22T02:08:08.345Z,11.55
2023-03-22T02:09:08.350Z,11.57
2023-03-22T02:10:08.326Z,11.61
2023-03-22T02:11:08.357Z,11.62
2023-03-22T02:12:08.302Z,11.51
2023-03-22T02:13:08.291Z,11.51
2023-03-22T02:14:08.279Z,11.52
2023-03-22T02:15:08.268Z,11.51
2023-03-22T02:16:08.319Z,11.49
2023-03-22T02:17:13.317Z,11.51
2023-03-22T02:18:08.232Z,11.49
2023-03-22T02:19:08.260Z,11.49
2023-03-22T02:20:08.213Z,11.51
2023-03-22T02:21:08.208Z,11.52
2023-03-22T02:22:08.186Z,11.54
2023-03-22T02:23:08.202Z,11.52
2023-03-22T02:24:08.165Z,11.54
2023-03-22T02:25:08.162Z,11.47
2023-03-22T02:26:08.151Z,11.49
2023-03-22T02:27:08.134Z,11.51
2023-03-22T02:28:13.143Z,11.57
2023-03-22T02:29:08.153Z,11.52
2023-03-22T02:30:08.100Z,11.49
2023-03-22T02:31:08.147Z,11.52
2023-03-22T02:32:08.083Z,11.49
2023-03-22T02:33:08.066Z,11.51
2023-03-22T02:34:08.052Z,11.54
2023-03-22T02:35:08.085Z,11.55
2023-03-22T02:36:08.053Z,11.49
2023-03-22T02:37:08.023Z,11.49
2023-03-22T02:38:08.009Z,11.55
2023-03-22T02:39:13.024Z,11.55
2023-03-22T02:40:08.006Z,11.57
2023-03-22T02:41:08.006Z,11.51
2023-03-22T02:42:07.965Z,11.51
2023-03-22T02:43:07.954Z,11.55
2023-03-22T02:44:07.964Z,11.52
2023-03-22T02:45:07.936Z,11.54
2023-03-22T02:46:07.980Z,11.52
2023-03-22T02:47:07.929Z,11.54
2023-03-22T02:48:08.102Z,11.51
2023-03-22T02:49:07.912Z,11.54
2023-03-22T02:50:12.920Z,11.64
2023-03-22T02:51:07.880Z,11.54
2023-03-22T02:52:07.851Z,11.57
2023-03-22T02:53:07.855Z,11.61
2023-03-22T02:54:07.828Z,11.57
2023-03-22T02:55:07.818Z,11.55
2023-03-22T02:56:07.818Z,11.51
2023-03-22T02:57:07.835Z,11.52
2023-03-22T02:58:07.782Z,11.51
2023-03-22T02:59:07.798Z,11.57
2023-03-22T03:00:07.761Z,11.60
2023-03-22T03:01:12.886Z,11.55
2023-03-22T03:02:07.853Z,11.61
2023-03-22T03:03:07.728Z,11.54
2023-03-22T03:04:07.721Z,11.57
2023-03-22T03:05:07.725Z,11.51
2023-03-22T03:06:07.721Z,11.62
2023-03-22T03:07:07.698Z,11.60
2023-03-22T03:08:07.668Z,11.58
2023-03-22T03:09:07.655Z,11.60
2023-03-22T03:10:07.646Z,11.60
2023-03-22T03:11:07.661Z,11.57
2023-03-22T03:12:12.661Z,11.67
2023-03-22T03:13:07.616Z,11.61
2023-03-22T03:14:07.604Z,11.62
2023-03-22T03:15:07.589Z,11.62
2023-03-22T03:16:07.681Z,11.64
2023-03-22T03:17:07.624Z,11.57
2023-03-22T03:18:07.553Z,11.61
2023-03-22T03:19:07.550Z,11.69
2023-03-22T03:20:07.531Z,11.55
2023-03-22T03:21:07.522Z,11.62
2023-03-22T03:22:07.542Z,11.61
2023-03-22T03:23:12.558Z,11.62
2023-03-22T03:24:07.487Z,11.60
2023-03-22T03:25:07.480Z,11.62
2023-03-22T03:26:13.818Z,11.64
2023-03-22T03:27:07.466Z,11.65
2023-03-22T03:28:07.445Z,11.62
2023-03-22T03:29:07.447Z,11.61
2023-03-22T03:30:07.427Z,11.62
2023-03-22T03:31:07.408Z,11.58
2023-03-22T03:32:07.424Z,11.61
2023-03-22T03:33:07.388Z,11.55
2023-03-22T03:34:12.404Z,11.62
2023-03-22T03:35:07.401Z,11.58
2023-03-22T03:36:07.359Z,11.52
2023-03-22T03:37:07.359Z,11.57
2023-03-22T03:38:07.357Z,11.55
2023-03-22T03:39:07.321Z,11.61
2023-03-22T03:40:07.307Z,11.67
2023-03-22T03:41:07.336Z,11.52
2023-03-22T03:42:07.304Z,11.60
2023-03-22T03:43:07.302Z,11.58
2023-03-22T03:44:07.267Z,11.52
2023-03-22T03:45:12.272Z,11.51
2023-03-22T03:46:07.270Z,11.52
2023-03-22T03:47:07.251Z,11.46
2023-03-22T03:48:07.426Z,11.51
2023-03-22T03:49:07.207Z,11.49
2023-03-22T03:50:07.193Z,11.47
2023-03-22T03:51:07.183Z,11.46
2023-03-22T03:52:07.188Z,11.37
2023-03-22T03:53:07.178Z,11.33
2023-03-22T03:54:07.172Z,11.29
2023-03-22T03:55:07.148Z,11.32
2023-03-22T03:56:12.169Z,11.32
2023-03-22T03:57:07.126Z,11.27
2023-03-22T03:58:07.106Z,11.32
2023-03-22T03:59:07.113Z,11.29
2023-03-22T04:00:07.087Z,11.28
2023-03-22T04:01:07.094Z,11.24
2023-03-22T04:02:07.122Z,11.28
2023-03-22T04:03:07.052Z,11.25
2023-03-22T04:04:07.118Z,11.28
2023-03-22T04:05:07.042Z,11.29
2023-03-22T04:06:07.017Z,11.29
2023-03-22T04:07:12.039Z,11.25
2023-03-22T04:08:06.997Z,11.22
2023-03-22T04:09:06.982Z,11.18
2023-03-22T04:10:07.002Z,11.18
2023-03-22T04:11:07.028Z,11.15
2023-03-22T04:12:06.959Z,11.04
2023-03-22T04:13:06.945Z,11.10
2023-03-22T04:14:06.934Z,11.11
2023-03-22T04:15:06.938Z,11.14
2023-03-22T04:16:06.908Z,11.19
2023-03-22T04:17:06.956Z,11.14
2023-03-22T04:18:11.923Z,11.04
2023-03-22T04:19:06.874Z,11.11
2023-03-22T04:20:06.872Z,11.07
2023-03-22T04:21:06.852Z,11.07
2023-03-22T04:22:06.851Z,11.04
2023-03-22T04:23:06.899Z,11.06
2023-03-22T04:24:06.832Z,10.96
2023-03-22T04:25:06.812Z,10.99
2023-03-22T04:26:06.817Z,11.00
2023-03-22T04:27:06.818Z,10.94
2023-03-22T04:28:06.775Z,11.00
2023-03-22T04:29:11.787Z,10.86
2023-03-22T04:30:06.770Z,10.89
2023-03-22T04:31:06.781Z,10.91
2023-03-22T04:32:06.752Z,10.82
2023-03-22T04:33:06.716Z,10.85
2023-03-22T04:34:06.719Z,10.84
2023-03-22T04:35:06.708Z,10.79
2023-03-22T04:36:06.704Z,10.85
2023-03-22T04:37:06.680Z,10.81
2023-03-22T04:38:06.661Z,10.74
2023-03-22T04:39:06.650Z,10.76
2023-03-22T04:40:11.660Z,10.74
2023-03-22T04:41:06.640Z,10.79
2023-03-22T04:42:06.661Z,10.68
2023-03-22T04:43:06.618Z,10.73
2023-03-22T04:44:06.609Z,10.70
2023-03-22T04:45:06.661Z,10.79
2023-03-22T04:46:06.591Z,10.73
2023-03-22T04:47:06.572Z,10.66
2023-03-22T04:48:06.613Z,10.73
2023-03-22T04:49:06.542Z,10.66
2023-03-22T04:50:06.566Z,10.67
2023-03-22T04:51:11.539Z,10.64
2023-03-22T04:52:06.533Z,10.64
2023-03-22T04:53:06.498Z,10.61
2023-03-22T04:54:06.501Z,10.60
2023-03-22T04:55:06.472Z,10.61
2023-03-22T04:56:06.460Z,10.52
2023-03-22T04:57:06.455Z,10.55
2023-03-22T04:58:06.475Z,10.52
2023-03-22T04:59:06.432Z,10.53
2023-03-22T05:00:06.442Z,10.52
2023-03-22T05:01:06.409Z,10.55
2023-03-22T05:02:11.415Z,10.52
2023-03-22T05:03:06.496Z,10.48
2023-03-22T05:04:06.379Z,10.42
2023-03-22T05:05:06.361Z,10.42
2023-03-22T05:06:06.378Z,10.36
2023-03-22T05:07:06.344Z,10.42
2023-03-22T05:08:06.335Z,10.33
2023-03-22T05:09:06.315Z,10.36
2023-03-22T05:10:06.321Z,10.32
2023-03-22T05:11:06.293Z,10.29
2023-03-22T05:12:06.308Z,10.34
2023-03-22T05:13:11.320Z,10.33
2023-03-22T05:14:06.337Z,10.33
2023-03-22T05:15:06.244Z,10.33
2023-03-22T05:16:06.309Z,10.26
2023-03-22T05:17:06.225Z,10.25
2023-03-22T05:18:06.258Z,10.26
2023-03-22T05:19:06.203Z,10.27
2023-03-22T05:20:06.203Z,10.22
2023-03-22T05:21:06.192Z,10.26
2023-03-22T05:22:06.167Z,10.22
2023-03-22T05:23:06.165Z,10.17
2023-03-22T05:24:11.197Z,10.29
2023-03-22T05:25:06.133Z,10.15
2023-03-22T05:26:06.125Z,10.23
2023-03-22T05:27:06.120Z,10.23
2023-03-22T05:28:06.123Z,10.18
2023-03-22T05:29:06.117Z,10.14
2023-03-22T05:30:06.098Z,10.25
2023-03-22T05:31:06.093Z,10.14
2023-03-22T05:32:06.057Z,10.14
2023-03-22T05:33:06.066Z,10.12
2023-03-22T05:34:06.042Z,10.18
2023-03-22T05:35:11.046Z,10.18
2023-03-22T05:36:06.039Z,10.17
2023-03-22T05:37:06.004Z,10.12
2023-03-22T05:38:06.004Z,10.12
2023-03-22T05:39:05.990Z,10.15
2023-03-22T05:40:05.971Z,10.15
2023-03-22T05:41:05.959Z,10.12
2023-03-22T05:42:05.979Z,10.17
2023-03-22T05:43:05.954Z,10.11
2023-03-22T05:44:05.936Z,10.09
2023-03-22T05:45:05.940Z,10.14
2023-03-22T05:46:10.937Z,10.17
2023-03-22T05:47:05.985Z,10.04
2023-03-22T05:48:05.971Z,10.11
2023-03-22T05:49:05.874Z,10.05
2023-03-22T05:50:05.872Z,10.17
2023-03-22T05:51:05.855Z,10.15
2023-03-22T05:52:05.851Z,10.04
2023-03-22T05:53:05.850Z,10.12
2023-03-22T05:54:05.838Z,10.07
2023-03-22T05:55:05.807Z,10.08
2023-03-22T05:56:05.798Z,10.05
2023-03-22T05:57:10.805Z,10.12
2023-03-22T05:58:05.784Z,10.11
2023-03-22T05:59:05.762Z,10.09
2023-03-22T06:00:05.782Z,10.17
2023-03-22T06:01:05.765Z,10.17
2023-03-22T06:02:05.789Z,10.14
2023-03-22T06:03:05.775Z,10.07
2023-03-22T06:04:05.715Z,10.14
2023-03-22T06:05:05.696Z,10.07
2023-03-22T06:06:05.711Z,10.15
2023-03-22T06:07:05.674Z,10.15
2023-03-22T06:08:10.689Z,10.08
2023-03-22T06:09:16.525Z,10.22
2023-03-22T06:10:05.652Z,10.27
2023-03-22T06:11:05.638Z,10.27
2023-03-22T06:12:05.638Z,10.26
2023-03-22T06:13:05.723Z,10.20
2023-03-22T06:14:05.598Z,10.22
2023-03-22T06:15:05.586Z,10.22
2023-03-22T06:16:05.655Z,10.22
2023-03-22T06:17:05.613Z,10.25
2023-03-22T06:18:05.589Z,10.27
2023-03-22T06:19:10.568Z,10.23
2023-03-22T06:20:05.532Z,10.18
2023-03-22T06:21:05.535Z,10.20
2023-03-22T06:22:05.506Z,10.17
2023-03-22T06:23:05.496Z,10.20
2023-03-22T06:24:05.520Z,10.22
2023-03-22T06:25:05.481Z,10.32
2023-03-22T06:26:05.460Z,10.30
2023-03-22T06:27:05.474Z,10.29
2023-03-22T06:28:08.546Z,10.36
2023-03-22T06:29:05.448Z,10.32
2023-03-22T06:30:10.478Z,10.33
2023-03-22T06:31:05.480Z,10.26
2023-03-22T06:32:05.406Z,10.32
2023-03-22T06:33:05.432Z,10.41
2023-03-22T06:34:05.378Z,10.26
2023-03-22T06:35:05.377Z,10.38
2023-03-22T06:36:05.400Z,10.27
2023-03-22T06:37:05.335Z,10.30
2023-03-22T06:38:05.321Z,10.38
2023-03-22T06:39:05.315Z,10.40
2023-03-22T06:40:05.301Z,10.40
2023-03-22T06:41:10.321Z,10.42
2023-03-22T06:42:05.286Z,10.40
2023-03-22T06:43:07.225Z,10.51
2023-03-22T06:44:05.261Z,10.52
2023-03-22T06:45:05.265Z,10.59
2023-03-22T06:46:05.271Z,10.56
2023-03-22T06:47:05.239Z,10.52
2023-03-22T06:48:05.248Z,10.67
2023-03-22T06:49:05.241Z,10.76
2023-03-22T06:50:05.186Z,10.78
2023-03-22T06:51:05.185Z,10.73
2023-03-22T06:52:10.186Z,10.70
2023-03-22T06:53:05.179Z,10.76
2023-03-22T06:54:05.204Z,10.85
2023-03-22T06:55:05.133Z,10.91
2023-03-22T06:56:05.126Z,10.94
2023-03-22T06:57:05.111Z,10.89
2023-03-22T06:58:05.101Z,11.02
2023-03-22T06:59:05.103Z,11.00
2023-03-22T07:00:05.298Z,11.06
2023-03-22T07:01:05.077Z,11.09
2023-03-22T07:02:05.047Z,11.09
2023-03-22T07:03:10.065Z,11.19
2023-03-22T07:04:05.159Z,11.14
2023-03-22T07:05:05.047Z,11.22
2023-03-22T07:06:05.024Z,11.25
2023-03-22T07:07:05.001Z,11.35
2023-03-22T07:08:04.990Z,11.39
2023-03-22T07:09:04.985Z,11.52
2023-03-22T07:10:05.004Z,11.52
2023-03-22T07:11:04.976Z,11.64
2023-03-22T07:12:04.963Z,11.57
2023-03-22T07:13:04.941Z,11.64
2023-03-22T07:14:09.957Z,11.70
2023-03-22T07:15:04.909Z,11.78
2023-03-22T07:16:04.928Z,11.76
2023-03-22T07:17:04.892Z,11.83
2023-03-22T07:18:04.882Z,11.86
2023-03-22T07:19:04.907Z,11.86
2023-03-22T07:20:04.851Z,11.88
2023-03-22T07:21:04.874Z,11.95
2023-03-22T07:22:04.877Z,11.88
2023-03-22T07:23:04.815Z,11.90
2023-03-22T07:24:04.832Z,12.05
2023-03-22T07:25:09.886Z,11.98
2023-03-22T07:26:04.820Z,12.16
2023-03-22T07:27:04.770Z,12.09
2023-03-22T07:28:04.759Z,12.12
2023-03-22T07:29:04.758Z,12.10
2023-03-22T07:30:04.735Z,12.10
2023-03-22T07:31:04.760Z,12.13
2023-03-22T07:32:04.759Z,12.13
2023-03-22T07:33:04.716Z,12.24
2023-03-22T07:34:04.692Z,12.23
2023-03-22T07:35:04.697Z,12.28
2023-03-22T07:36:09.723Z,12.34
2023-03-22T07:37:04.665Z,12.37
2023-03-22T07:38:04.666Z,12.38
2023-03-22T07:39:04.650Z,12.35
2023-03-22T07:40:04.697Z,12.39
2023-03-22T07:41:04.627Z,12.46
2023-03-22T07:42:04.636Z,12.52
2023-03-22T07:43:04.597Z,12.52
2023-03-22T07:44:16.997Z,12.53
2023-03-22T07:45:04.650Z,12.47
2023-03-22T07:46:04.591Z,12.53
2023-03-22T07:47:09.863Z,12.53
2023-03-22T07:48:04.558Z,12.59
2023-03-22T07:49:04.549Z,12.70
2023-03-22T07:50:04.887Z,12.72
2023-03-22T07:51:04.511Z,12.79
2023-03-22T07:52:04.528Z,12.82
2023-03-22T07:53:04.492Z,12.92
2023-03-22T07:54:07.157Z,12.87
2023-03-22T07:55:04.484Z,13.04
2023-03-22T07:56:04.550Z,12.90
2023-03-22T07:57:04.467Z,12.87
2023-03-22T07:58:09.454Z,12.95
2023-03-22T07:59:04.459Z,12.87
2023-03-22T08:00:04.498Z,13.04
2023-03-22T08:01:04.419Z,13.10
2023-03-22T08:02:04.438Z,13.12
2023-03-22T08:03:04.437Z,13.48
2023-03-22T08:04:04.391Z,14.10
2023-03-22T08:05:04.366Z,14.51
2023-03-22T08:06:04.383Z,14.80
2023-03-22T08:07:04.330Z,15.39
2023-03-22T08:08:04.341Z,15.68
2023-03-22T08:09:09.333Z,15.89
2023-03-22T08:10:04.608Z,16.09
2023-03-22T08:11:04.285Z,16.27
2023-03-22T08:12:04.273Z,16.34
2023-03-22T08:13:04.263Z,16.28
2023-03-22T08:14:04.251Z,16.25
2023-03-22T08:15:04.255Z,16.17
2023-03-22T08:16:04.261Z,15.94
2023-03-22T08:17:04.258Z,15.67
2023-03-22T08:18:04.213Z,15.36
2023-03-22T08:19:04.196Z,15.13
2023-03-22T08:20:09.256Z,14.60
2023-03-22T08:21:04.173Z,14.32
2023-03-22T08:22:04.180Z,14.39
2023-03-22T08:23:04.154Z,14.43
2023-03-22T08:24:04.170Z,14.39
2023-03-22T08:25:04.140Z,14.43
2023-03-22T08:26:04.117Z,14.50
2023-03-22T08:27:04.107Z,14.51
2023-03-22T08:28:04.104Z,14.73
2023-03-22T08:29:04.081Z,14.83
2023-03-22T08:30:04.083Z,14.98
2023-03-22T08:31:09.085Z,14.81
2023-03-22T08:32:04.159Z,15.02
2023-03-22T08:33:04.039Z,15.36
2023-03-22T08:34:04.060Z,15.75
2023-03-22T08:35:04.026Z,16.11
2023-03-22T08:36:04.001Z,16.50
2023-03-22T08:37:03.991Z,16.31
2023-03-22T08:38:03.981Z,15.96
2023-03-22T08:39:03.973Z,15.60
2023-03-22T08:40:04.003Z,15.43
2023-03-22T08:41:03.954Z,15.46
2023-03-22T08:42:08.960Z,15.80
2023-03-22T08:43:03.926Z,16.21
2023-03-22T08:44:03.940Z,16.50
2023-03-22T08:45:03.901Z,16.93
2023-03-22T08:46:03.952Z,17.16
2023-03-22T08:47:03.889Z,16.98
2023-03-22T08:48:03.924Z,17.12
2023-03-22T08:49:03.856Z,17.14
2023-03-22T08:50:03.844Z,17.36
2023-03-22T08:51:03.843Z,17.55
2023-03-22T08:52:03.858Z,17.26
2023-03-22T08:53:08.865Z,17.04
2023-03-22T08:54:03.807Z,17.08
2023-03-22T08:55:03.800Z,17.18
2023-03-22T08:56:03.803Z,17.08
2023-03-22T08:57:03.807Z,17.37
2023-03-22T08:58:03.777Z,17.64
2023-03-22T08:59:03.832Z,17.87
2023-03-22T09:00:03.736Z,17.58
2023-03-22T09:01:03.876Z,17.37
2023-03-22T09:02:03.846Z,17.19
2023-03-22T09:03:03.702Z,17.01
2023-03-22T09:04:10.609Z,16.94
2023-03-22T09:05:03.687Z,17.00
2023-03-22T09:06:03.676Z,16.94
2023-03-22T09:07:03.718Z,16.82
2023-03-22T09:08:06.621Z,16.86
2023-03-22T09:09:03.636Z,16.85
2023-03-22T09:10:03.645Z,16.97
2023-03-22T09:11:03.625Z,17.00
2023-03-22T09:12:03.626Z,17.00
2023-03-22T09:13:03.590Z,16.78
2023-03-22T09:14:03.578Z,16.81
2023-03-22T09:15:08.592Z,16.86
2023-03-22T09:16:03.660Z,17.11
2023-03-22T09:17:03.548Z,17.23
2023-03-22T09:18:03.544Z,17.38
2023-03-22T09:19:03.544Z,17.31
2023-03-22T09:20:12.471Z,17.34
2023-03-22T09:21:03.568Z,17.46
2023-03-22T09:22:03.509Z,17.36
2023-03-22T09:23:03.479Z,17.19
2023-03-22T09:24:03.475Z,17.52
2023-03-22T09:25:03.451Z,17.81
2023-03-22T09:26:08.474Z,18.07
2023-03-22T09:27:03.439Z,18.39
2023-03-22T09:28:03.450Z,18.39
2023-03-22T09:29:03.411Z,18.05
2023-03-22T09:30:03.416Z,18.14
2023-03-22T09:31:03.449Z,18.03
2023-03-22T09:32:03.372Z,18.00
2023-03-22T09:33:03.362Z,18.10
2023-03-22T09:34:03.363Z,18.10
2023-03-22T09:35:03.344Z,18.00
2023-03-22T09:36:03.427Z,18.14
2023-03-22T09:37:08.350Z,18.35
2023-03-22T09:38:03.310Z,18.20
2023-03-22T09:39:03.295Z,18.10
2023-03-22T09:40:03.300Z,17.90
2023-03-22T09:41:03.290Z,17.92
2023-03-22T09:42:03.268Z,18.05
2023-03-22T09:43:03.258Z,18.11
2023-03-22T09:44:03.294Z,18.14
2023-03-22T09:45:03.252Z,18.14
2023-03-22T09:46:03.317Z,18.11
2023-03-22T09:47:03.211Z,18.20
2023-03-22T09:48:08.316Z,18.07
2023-03-22T09:49:03.187Z,18.15
2023-03-22T09:50:03.183Z,18.07
2023-03-22T09:51:03.164Z,18.02
2023-03-22T09:52:03.214Z,17.90
2023-03-22T09:53:03.140Z,17.84
2023-03-22T09:54:03.127Z,17.68
2023-03-22T09:55:03.117Z,17.78
2023-03-22T09:56:03.104Z,17.56
2023-03-22T09:57:03.104Z,17.55
2023-03-22T09:58:03.101Z,17.54
2023-03-22T09:59:08.113Z,17.36
2023-03-22T10:00:03.063Z,17.33
2023-03-22T10:01:03.317Z,17.21
2023-03-22T10:02:03.341Z,17.23
2023-03-22T10:03:03.030Z,17.01
2023-03-22T10:04:03.078Z,17.04
2023-03-22T10:05:03.040Z,17.21
2023-03-22T10:06:03.003Z,17.23
2023-03-22T10:07:02.992Z,17.33
2023-03-22T10:08:02.977Z,17.26
2023-03-22T10:09:02.966Z,17.31
2023-03-22T10:10:07.991Z,17.23
2023-03-22T10:11:02.936Z,17.06
2023-03-22T10:12:02.934Z,17.14
2023-03-22T10:13:02.927Z,17.06
2023-03-22T10:14:02.905Z,16.91
2023-03-22T10:15:02.910Z,17.06
2023-03-22T10:16:02.964Z,17.14
2023-03-22T10:17:02.881Z,17.08
2023-03-22T10:18:02.885Z,17.08
2023-03-22T10:19:02.856Z,17.11
2023-03-22T10:20:02.860Z,17.30
2023-03-22T10:21:07.868Z,17.26
2023-03-22T10:22:02.840Z,17.21
2023-03-22T10:23:02.799Z,17.22
2023-03-22T10:24:02.793Z,17.37
2023-03-22T10:25:02.803Z,17.43
2023-03-22T10:26:02.783Z,17.54
2023-03-22T10:27:02.768Z,17.40
2023-03-22T10:28:02.758Z,17.54
2023-03-22T10:29:03.789Z,17.62
2023-03-22T10:30:02.735Z,17.84
2023-03-22T10:31:05.612Z,17.92
2023-03-22T10:32:07.733Z,18.15
2023-03-22T10:33:02.686Z,18.20
2023-03-22T10:34:02.690Z,18.30
2023-03-22T10:35:02.663Z,18.44
2023-03-22T10:36:02.693Z,18.51
2023-03-22T10:37:02.656Z,18.51
2023-03-22T10:38:02.634Z,18.65
2023-03-22T10:39:02.621Z,18.50
2023-03-22T10:40:02.643Z,18.44
2023-03-22T10:41:02.602Z,18.39
2023-03-22T10:42:02.624Z,18.37
2023-03-22T10:43:07.605Z,18.42
2023-03-22T10:44:02.572Z,18.39
2023-03-22T10:45:02.558Z,18.14
2023-03-22T10:46:02.588Z,18.17
2023-03-22T10:47:02.661Z,18.44
2023-03-22T10:48:02.574Z,18.81
2023-03-22T10:49:02.521Z,19.14
2023-03-22T10:50:02.503Z,19.19
2023-03-22T10:51:02.500Z,19.44
2023-03-22T10:52:02.532Z,19.74
2023-03-22T10:53:02.469Z,19.98
2023-03-22T10:54:07.480Z,20.26
2023-03-22T10:55:04.585Z,20.42
2023-03-22T10:56:02.442Z,20.43
2023-03-22T10:57:02.434Z,20.47
2023-03-22T10:58:02.433Z,20.66
2023-03-22T10:59:02.406Z,20.61
2023-03-22T11:00:02.430Z,20.72
2023-03-22T11:01:02.527Z,20.73
2023-03-22T11:02:02.541Z,20.47
2023-03-22T11:03:02.396Z,20.02
2023-03-22T11:04:02.375Z,20.10
2023-03-22T11:05:07.361Z,19.78
2023-03-22T11:06:02.361Z,19.48
2023-03-22T11:07:02.323Z,19.46
2023-03-22T11:08:02.305Z,19.55
2023-03-22T11:09:02.296Z,19.50
2023-03-22T11:10:02.334Z,19.76
2023-03-22T11:11:02.269Z,19.68
2023-03-22T11:12:02.281Z,19.61
2023-03-22T11:13:02.253Z,19.80
2023-03-22T11:14:02.236Z,19.99
2023-03-22T11:15:02.227Z,20.52
2023-03-22T11:16:07.307Z,20.70
2023-03-22T11:17:02.220Z,20.43
2023-03-22T11:18:02.205Z,20.06
2023-03-22T11:19:02.216Z,20.08
2023-03-22T11:20:02.271Z,19.58
2023-03-22T11:21:02.160Z,19.78
2023-03-22T11:22:02.178Z,19.87
2023-03-22T11:23:02.133Z,19.73
2023-03-22T11:24:02.124Z,19.63
2023-03-22T11:25:02.112Z,19.59
2023-03-22T11:26:02.103Z,19.32
2023-03-22T11:27:07.128Z,19.29
2023-03-22T11:28:02.111Z,19.43
2023-03-22T11:29:02.072Z,19.81
2023-03-22T11:30:02.063Z,20.17
2023-03-22T11:31:02.047Z,20.33
2023-03-22T11:32:02.114Z,20.87
2023-03-22T11:33:02.167Z,21.44
2023-03-22T11:34:02.047Z,22.06
2023-03-22T11:35:02.045Z,22.46
2023-03-22T11:36:02.149Z,22.65
2023-03-22T11:37:02.006Z,22.25
2023-03-22T11:38:07.013Z,22.03
2023-03-22T11:39:01.967Z,21.44
2023-03-22T11:40:01.960Z,21.67
2023-03-22T11:41:01.969Z,21.71
2023-03-22T11:42:01.977Z,22.30
2023-03-22T11:43:01.929Z,22.97
2023-03-22T11:44:01.915Z,22.90
2023-03-22T11:45:01.922Z,22.77
2023-03-22T11:46:01.957Z,23.01
2023-03-22T11:47:01.873Z,22.46
2023-03-22T11:48:01.987Z,22.61
2023-03-22T11:49:06.934Z,22.95
2023-03-22T11:50:01.861Z,23.09
2023-03-22T11:51:01.867Z,23.25
2023-03-22T11:52:04.156Z,23.42
2023-03-22T11:53:01.823Z,23.42
2023-03-22T11:54:01.804Z,23.39
2023-03-22T11:55:01.786Z,23.19
2023-03-22T11:56:01.777Z,22.75
2023-03-22T11:57:01.775Z,22.60
2023-03-22T11:58:01.784Z,22.35
2023-03-22T11:59:01.739Z,21.91
2023-03-22T12:00:01.736Z,21.50
2023-03-22T12:01:01.737Z,21.38
2023-03-22T12:02:06.822Z,20.97
2023-03-22T12:03:01.768Z,20.69
2023-03-22T12:04:01.878Z,20.95
2023-03-22T12:05:01.759Z,21.28
2023-03-22T12:06:01.708Z,21.46
2023-03-22T12:07:01.673Z,21.31
2023-03-22T12:08:01.656Z,21.38
2023-03-22T12:09:01.628Z,21.59
2023-03-22T12:10:01.636Z,21.79
2023-03-22T12:11:01.617Z,21.94
2023-03-22T12:12:01.607Z,21.83
2023-03-22T12:13:01.598Z,21.38
2023-03-22T12:14:01.571Z,21.74
2023-03-22T12:15:06.584Z,21.74
2023-03-22T12:16:01.681Z,21.09
2023-03-22T12:17:01.572Z,21.24
2023-03-22T12:18:01.639Z,20.99
2023-03-22T12:19:01.524Z,21.34
2023-03-22T12:20:01.521Z,21.68
2023-03-22T12:21:01.507Z,22.10
2023-03-22T12:22:01.528Z,22.39
2023-03-22T12:23:01.577Z,22.46
2023-03-22T12:24:01.487Z,22.60
2023-03-22T12:25:01.456Z,22.76
2023-03-22T12:26:01.465Z,22.80
2023-03-22T12:27:01.436Z,22.61
2023-03-22T12:28:06.492Z,22.83
2023-03-22T12:29:01.446Z,23.07
2023-03-22T12:30:01.426Z,22.82
2023-03-22T12:31:01.431Z,22.05
2023-03-22T12:32:01.376Z,22.49
2023-03-22T12:33:01.482Z,22.62
2023-03-22T12:34:01.461Z,22.91
2023-03-22T12:35:17.975Z,23.27
2023-03-22T12:36:02.374Z,23.46
2023-03-22T12:37:01.325Z,23.53
2023-03-22T12:38:01.314Z,23.91
2023-03-22T12:39:06.348Z,23.83
2023-03-22T12:40:01.342Z,23.66
2023-03-22T12:41:01.304Z,23.40
2023-03-22T12:42:01.290Z,23.33
2023-03-22T12:43:01.252Z,23.07
2023-03-22T12:44:01.284Z,22.65
2023-03-22T12:45:05.030Z,22.77
2023-03-22T12:46:01.280Z,23.10
2023-03-22T12:47:01.262Z,23.28
2023-03-22T12:48:01.324Z,23.20
2023-03-22T12:49:01.337Z,23.23
2023-03-22T12:50:01.184Z,23.40
2023-03-22T12:51:01.170Z,23.23
2023-03-22T12:52:06.219Z,23.23